createdAt,value
2022-11-16T00:00:10.735Z,2.03
2022-11-16T00:02:40.436Z,0.90
2022-11-16T00:05:09.452Z,2.67
2022-11-16T00:07:37.777Z,0.60
2022-11-16T00:10:06.818Z,1.07
2022-11-16T00:12:35.037Z,1.87
2022-11-16T00:15:03.310Z,0.80
2022-11-16T00:17:31.599Z,1.03
2022-11-16T00:20:01.333Z,1.70
2022-11-16T00:22:29.625Z,2.63
2022-11-16T00:24:57.887Z,1.23
2022-11-16T00:27:26.184Z,1.33
2022-11-16T00:29:54.494Z,1.07
2022-11-16T00:32:23.683Z,2.33
2022-11-16T00:34:51.896Z,3.00
2022-11-16T00:37:21.637Z,0.60
2022-11-16T00:39:49.855Z,2.03
2022-11-16T00:42:18.080Z,1.60
2022-11-16T00:44:46.322Z,1.40
2022-11-16T00:47:14.585Z,0.80
2022-11-16T00:49:42.767Z,1.27
2022-11-16T00:52:10.952Z,1.27
2022-11-16T00:54:40.672Z,1.83
2022-11-16T00:57:08.995Z,1.37
2022-11-16T00:59:37.191Z,1.20
2022-11-16T01:02:05.417Z,2.53
2022-11-16T01:04:33.649Z,1.13
2022-11-16T01:07:01.923Z,1.60
2022-11-16T01:09:30.210Z,1.97
2022-11-16T01:12:12.845Z,1.30
2022-11-16T01:14:44.545Z,0.97
2022-11-16T01:17:13.158Z,1.20
2022-11-16T01:19:42.117Z,1.07
2022-11-16T01:22:10.385Z,0.70
2022-11-16T01:24:38.622Z,1.90
2022-11-16T01:27:08.234Z,0.70
2022-11-16T01:29:36.476Z,0.60
2022-11-16T01:32:04.743Z,1.07
2022-11-16T01:34:34.112Z,0.67
2022-11-16T01:37:02.361Z,0.67
2022-11-16T01:39:30.567Z,0.93
2022-11-16T01:41:58.883Z,0.50
2022-11-16T01:45:09.514Z,0.80
2022-11-16T01:47:39.235Z,0.40
2022-11-16T01:50:11.556Z,0.33
2022-11-16T01:52:46.411Z,0.40
2022-11-16T01:55:14.890Z,0.47
2022-11-16T01:57:45.517Z,0.77
2022-11-16T02:00:15.692Z,0.37
2022-11-16T02:02:45.793Z,0.23
2022-11-16T02:05:17.785Z,0.73
2022-11-16T02:08:25.546Z,1.07
2022-11-16T02:11:11.887Z,0.83
2022-11-16T02:13:52.593Z,1.13
2022-11-16T02:16:33.378Z,0.40
2022-11-16T02:19:28.316Z,1.07
2022-11-16T02:22:07.275Z,0.80
2022-11-16T02:24:45.952Z,1.20
2022-11-16T02:27:49.566Z,2.20
2022-11-16T02:30:21.173Z,1.70
2022-11-16T02:32:54.948Z,0.97
2022-11-16T02:35:27.790Z,0.93
2022-11-16T02:38:00.409Z,1.67
2022-11-16T02:40:33.034Z,3.73
2022-11-16T02:43:06.428Z,0.30
2022-11-16T02:45:41.355Z,1.70
2022-11-16T02:48:14.467Z,0.60
2022-11-16T02:50:44.571Z,0.83
2022-11-16T02:53:12.866Z,1.13
2022-11-16T02:55:41.688Z,1.33
2022-11-16T02:58:12.382Z,1.30
2022-11-16T03:00:48.232Z,0.73
2022-11-16T03:03:28.292Z,1.03
2022-11-16T03:06:03.161Z,3.43
2022-11-16T03:08:34.057Z,1.10
2022-11-16T03:11:23.156Z,0.60
2022-11-16T03:13:52.423Z,1.00
2022-11-16T03:16:27.320Z,1.00
2022-11-16T03:18:58.664Z,1.60
2022-11-16T03:21:34.430Z,1.43
2022-11-16T03:24:03.279Z,2.33
2022-11-16T03:26:39.732Z,1.13
2022-11-16T03:29:15.581Z,2.27
2022-11-16T03:31:50.173Z,1.33
2022-11-16T03:34:23.606Z,1.30
2022-11-16T03:36:54.341Z,1.73
2022-11-16T03:39:26.956Z,2.73
2022-11-16T03:41:57.675Z,0.57
2022-11-16T03:44:26.944Z,1.13
2022-11-16T03:46:56.826Z,1.10
2022-11-16T03:49:25.278Z,2.00
2022-11-16T03:51:53.758Z,2.20
2022-11-16T03:54:22.224Z,1.50
2022-11-16T03:56:50.497Z,0.80
2022-11-16T03:59:18.727Z,1.73
2022-11-16T04:01:46.927Z,0.63
2022-11-16T04:04:30.415Z,1.70
2022-11-16T04:07:16.107Z,1.43
2022-11-16T04:10:01.543Z,1.30
2022-11-16T04:12:47.095Z,0.40
2022-11-16T04:15:31.771Z,1.33
2022-11-16T04:18:17.134Z,0.40
2022-11-16T04:21:04.159Z,3.27
2022-11-16T04:23:50.000Z,0.53
2022-11-16T04:26:18.461Z,1.17
2022-11-16T04:28:45.818Z,0.63
2022-11-16T04:31:31.730Z,0.90
2022-11-16T04:34:17.220Z,0.77
2022-11-16T04:37:04.234Z,1.33
2022-11-16T04:39:32.457Z,1.00
2022-11-16T04:42:16.029Z,0.93
2022-11-16T04:45:01.895Z,2.07
2022-11-16T04:47:30.194Z,1.17
2022-11-16T04:49:58.411Z,1.03
2022-11-16T04:52:28.001Z,3.10
2022-11-16T04:54:56.265Z,1.70
2022-11-16T04:57:24.581Z,3.70
2022-11-16T04:59:52.768Z,2.67
2022-11-16T05:02:21.175Z,1.87
2022-11-16T05:04:49.450Z,1.30
2022-11-16T05:07:17.717Z,0.50
2022-11-16T05:09:48.834Z,0.80
2022-11-16T05:12:20.761Z,1.13
2022-11-16T05:14:49.025Z,1.07
2022-11-16T05:17:18.176Z,1.77
2022-11-16T05:20:03.887Z,2.33
2022-11-16T05:22:32.181Z,1.23
2022-11-16T05:25:01.894Z,0.60
2022-11-16T05:27:31.216Z,1.60
2022-11-16T05:29:59.770Z,0.80
2022-11-16T05:32:29.414Z,0.73
2022-11-16T05:34:57.611Z,2.13
2022-11-16T05:37:27.004Z,0.90
2022-11-16T05:39:57.158Z,0.80
2022-11-16T05:42:26.840Z,0.93
2022-11-16T05:44:55.085Z,2.20
2022-11-16T05:47:23.337Z,0.60
2022-11-16T05:49:51.647Z,0.83
2022-11-16T05:52:19.898Z,0.70
2022-11-16T05:54:48.109Z,0.70
2022-11-16T05:57:17.571Z,2.57
2022-11-16T05:59:47.260Z,1.20
2022-11-16T06:02:15.480Z,1.37
2022-11-16T06:04:43.737Z,1.07
2022-11-16T06:07:12.075Z,0.70
2022-11-16T06:09:40.350Z,2.80
2022-11-16T06:12:09.401Z,1.50
2022-11-16T06:14:37.744Z,1.63
2022-11-16T06:17:07.399Z,0.43
2022-11-16T06:19:36.712Z,1.80
2022-11-16T06:22:04.927Z,1.23
2022-11-16T06:24:33.161Z,1.00
2022-11-16T06:27:01.563Z,1.30
2022-11-16T06:29:29.788Z,0.63
2022-11-16T06:31:58.072Z,1.23
2022-11-16T06:34:27.698Z,0.60
2022-11-16T06:36:55.942Z,0.80
2022-11-16T06:39:24.236Z,1.07
2022-11-16T06:41:52.453Z,1.00
2022-11-16T06:44:20.648Z,0.53
2022-11-16T06:46:48.808Z,0.83
2022-11-16T06:49:17.086Z,1.70
2022-11-16T06:51:46.695Z,0.63
2022-11-16T06:57:00.419Z,0.63
2022-11-16T06:59:28.612Z,0.70
2022-11-16T07:01:56.935Z,1.97
2022-11-16T07:04:25.226Z,1.13
2022-11-16T07:06:55.061Z,1.70
2022-11-16T07:09:23.300Z,1.20
2022-11-16T07:11:51.563Z,1.40
2022-11-16T07:14:20.494Z,1.70
2022-11-16T07:16:48.711Z,1.83
2022-11-16T07:19:17.409Z,1.77
2022-11-16T07:21:45.687Z,3.27
2022-11-16T07:24:18.679Z,1.87
2022-11-16T07:26:46.997Z,2.80
2022-11-16T07:29:15.778Z,5.17
2022-11-16T07:31:44.069Z,4.90
2022-11-16T07:34:15.432Z,3.30
2022-11-16T07:36:43.938Z,2.37
2022-11-16T07:39:12.134Z,2.50
2022-11-16T07:41:44.428Z,2.40
2022-11-16T07:44:12.671Z,2.13
2022-11-16T07:46:48.799Z,1.40
2022-11-16T07:49:19.657Z,1.50
2022-11-16T07:51:47.909Z,1.23
2022-11-16T07:54:17.060Z,1.80
2022-11-16T07:56:46.665Z,1.50
2022-11-16T07:59:14.901Z,1.40
2022-11-16T08:01:43.157Z,1.13
2022-11-16T08:04:11.360Z,1.50
2022-11-16T08:06:39.570Z,1.90
2022-11-16T08:09:07.789Z,0.87
2022-11-16T08:11:36.012Z,2.17
2022-11-16T08:14:05.719Z,1.87
2022-11-16T08:16:34.284Z,3.40
2022-11-16T08:19:02.531Z,0.63
2022-11-16T08:21:30.774Z,1.13
2022-11-16T08:23:59.243Z,0.90
2022-11-16T08:26:28.317Z,1.33
2022-11-16T08:28:56.743Z,0.60
2022-11-16T08:31:28.016Z,2.47
2022-11-16T08:33:56.879Z,0.50
2022-11-16T08:36:25.232Z,0.50
2022-11-16T08:38:54.097Z,1.93
2022-11-16T08:41:22.851Z,1.07
2022-11-16T08:43:53.529Z,2.10
2022-11-16T08:46:22.261Z,0.70
2022-11-16T08:48:57.056Z,1.20
2022-11-16T08:54:12.357Z,1.60
2022-11-16T08:56:40.616Z,2.10
2022-11-16T08:59:08.835Z,1.63
2022-11-16T09:01:37.099Z,1.73
2022-11-16T09:04:07.046Z,1.40
2022-11-16T09:06:37.335Z,0.97
2022-11-16T09:09:06.041Z,2.20
2022-11-16T09:11:34.525Z,1.87
2022-11-16T09:16:48.366Z,1.63
2022-11-16T09:19:17.935Z,1.97
2022-11-16T09:21:46.671Z,1.23
2022-11-16T09:24:14.978Z,1.33
2022-11-16T09:26:43.210Z,2.13
2022-11-16T09:29:14.286Z,1.40
2022-11-16T09:31:42.754Z,1.80
2022-11-16T09:34:11.125Z,1.80
2022-11-16T09:36:40.814Z,2.23
2022-11-16T09:42:08.608Z,1.53
2022-11-16T09:44:59.495Z,2.13
2022-11-16T09:47:39.794Z,1.70
2022-11-16T09:50:16.583Z,1.50
2022-11-16T09:52:50.686Z,0.90
2022-11-16T09:55:25.874Z,1.33
2022-11-16T09:57:58.700Z,1.20
2022-11-16T10:00:27.010Z,1.50
2022-11-16T10:03:03.338Z,1.80
2022-11-16T10:05:38.675Z,2.73
2022-11-16T10:08:16.031Z,1.73
2022-11-16T10:10:52.370Z,1.87
2022-11-16T10:13:29.430Z,0.87
2022-11-16T10:16:06.402Z,1.73
2022-11-16T10:18:47.943Z,1.60
2022-11-16T10:21:37.436Z,1.70
2022-11-16T10:24:26.289Z,1.23
2022-11-16T10:27:08.866Z,1.50
2022-11-16T10:29:49.424Z,1.63
2022-11-16T10:32:26.112Z,1.73
2022-11-16T10:34:56.064Z,1.40
2022-11-16T10:37:31.627Z,1.03
2022-11-16T10:40:03.722Z,1.17
2022-11-16T10:42:39.342Z,1.67
2022-11-16T10:45:16.787Z,1.17
2022-11-16T10:47:51.331Z,0.50
2022-11-16T10:50:33.073Z,0.87
2022-11-16T10:53:01.996Z,0.90
2022-11-16T10:55:31.888Z,0.93
2022-11-16T10:58:02.012Z,0.57
2022-11-16T11:00:39.601Z,1.00
2022-11-16T11:03:10.831Z,0.90
2022-11-16T11:05:49.262Z,0.87
2022-11-16T11:08:27.496Z,0.90
2022-11-16T11:11:22.804Z,1.83
2022-11-16T11:14:05.273Z,0.50
2022-11-16T11:16:33.462Z,0.70
2022-11-16T11:19:20.386Z,1.10
2022-11-16T11:21:49.295Z,0.97
2022-11-16T11:27:08.945Z,0.70
2022-11-16T11:29:38.967Z,1.00
2022-11-16T11:32:16.887Z,1.07
2022-11-16T11:34:50.830Z,1.13
2022-11-16T11:37:22.999Z,0.70
2022-11-16T11:40:06.704Z,0.80
2022-11-16T11:42:36.711Z,1.10
2022-11-16T11:45:09.395Z,0.90
2022-11-16T11:47:58.689Z,0.43
2022-11-16T11:50:38.085Z,0.40
2022-11-16T11:53:09.550Z,0.60
2022-11-16T11:55:37.873Z,0.73
2022-11-16T11:58:12.676Z,0.70
2022-11-16T12:01:05.828Z,0.43
2022-11-16T12:03:52.359Z,0.70
2022-11-16T12:06:29.100Z,0.57
2022-11-16T12:09:09.869Z,0.70
2022-11-16T12:11:50.647Z,1.60
2022-11-16T12:14:34.189Z,0.70
2022-11-16T12:17:08.635Z,1.30
2022-11-16T12:19:56.448Z,1.53
2022-11-16T12:22:42.287Z,0.80
2022-11-16T12:25:22.550Z,0.50
2022-11-16T12:28:05.664Z,0.87
2022-11-16T12:30:45.196Z,0.40
2022-11-16T12:33:26.023Z,0.50
2022-11-16T12:36:02.535Z,0.37
2022-11-16T12:38:59.812Z,0.50
2022-11-16T12:41:48.200Z,1.13
2022-11-16T12:44:23.560Z,0.70
2022-11-16T12:47:05.697Z,0.37
2022-11-16T12:49:57.632Z,0.80
2022-11-16T12:52:43.640Z,1.23
2022-11-16T12:55:27.130Z,1.50
2022-11-16T12:58:15.725Z,1.40
2022-11-16T13:00:59.774Z,1.10
2022-11-16T13:03:35.378Z,0.40
2022-11-16T13:06:08.251Z,0.53
2022-11-16T13:08:48.344Z,0.37
2022-11-16T13:11:21.943Z,0.63
2022-11-16T13:13:54.044Z,0.60
2022-11-16T13:16:24.128Z,0.20
2022-11-16T13:18:55.649Z,0.40
2022-11-16T13:21:41.071Z,0.60
2022-11-16T13:24:28.512Z,0.50
2022-11-16T13:27:02.731Z,0.50
2022-11-16T13:29:38.387Z,0.30
2022-11-16T13:32:14.913Z,0.80
2022-11-16T13:34:45.423Z,0.43
2022-11-16T13:37:48.231Z,1.13
2022-11-16T13:40:28.397Z,0.50
2022-11-16T13:43:04.802Z,0.53
2022-11-16T13:45:36.309Z,1.17
2022-11-16T13:48:18.159Z,0.40
2022-11-16T13:50:52.949Z,0.83
2022-11-16T13:56:17.053Z,0.30
2022-11-16T13:58:47.653Z,0.83
2022-11-16T14:01:16.972Z,0.70
2022-11-16T14:03:48.423Z,0.40
2022-11-16T14:06:53.483Z,0.50
2022-11-16T14:09:45.582Z,0.60
2022-11-16T14:12:51.603Z,0.27
2022-11-16T14:15:22.092Z,0.40
2022-11-16T14:17:54.846Z,0.40
2022-11-16T14:20:34.674Z,0.77
2022-11-16T14:23:17.564Z,1.33
2022-11-16T14:25:56.821Z,1.50
2022-11-16T14:28:39.532Z,1.47
2022-11-16T14:31:17.137Z,1.47
2022-11-16T14:33:52.210Z,1.37
2022-11-16T14:36:37.978Z,0.40
2022-11-16T14:39:24.904Z,0.90
2022-11-16T14:41:55.466Z,0.60
2022-11-16T14:44:27.874Z,1.00
2022-11-16T14:46:57.214Z,1.40
2022-11-16T14:49:28.365Z,1.00
2022-11-16T14:52:00.253Z,0.60
2022-11-16T14:54:35.120Z,0.70
2022-11-16T14:57:06.890Z,0.90
2022-11-16T14:59:35.104Z,0.93
2022-11-16T15:02:20.583Z,0.50
2022-11-16T15:04:49.911Z,0.93
2022-11-16T15:07:20.527Z,2.17
2022-11-16T15:09:51.577Z,1.47
2022-11-16T15:12:42.592Z,0.97
2022-11-16T15:15:17.105Z,2.30
2022-11-16T15:17:47.022Z,1.83
2022-11-16T15:20:20.953Z,1.30
2022-11-16T15:22:52.215Z,0.63
2022-11-16T15:25:29.426Z,1.60
2022-11-16T15:28:01.927Z,3.13
2022-11-16T15:30:33.163Z,2.10
2022-11-16T15:33:03.814Z,1.63
2022-11-16T15:35:33.959Z,1.43
2022-11-16T15:38:07.275Z,1.70
2022-11-16T15:40:36.511Z,1.37
2022-11-16T15:43:07.789Z,1.60
2022-11-16T15:45:37.768Z,1.33
2022-11-16T15:48:07.133Z,2.90
2022-11-16T15:50:35.447Z,1.57
2022-11-16T15:53:03.734Z,3.63
2022-11-16T15:55:35.537Z,2.73
2022-11-16T15:58:15.314Z,1.87
2022-11-16T16:00:48.448Z,2.23
2022-11-16T16:03:23.043Z,3.40
2022-11-16T16:05:51.966Z,2.30
2022-11-16T16:08:28.308Z,2.10
2022-11-16T16:11:27.666Z,2.00
2022-11-16T16:14:01.795Z,3.43
2022-11-16T16:16:32.619Z,4.97
2022-11-16T16:19:09.291Z,5.93
2022-11-16T16:21:45.888Z,1.77
2022-11-16T16:24:36.188Z,4.80
2022-11-16T16:27:11.705Z,2.17
2022-11-16T16:29:41.419Z,1.10
2022-11-16T16:32:17.321Z,2.20
2022-11-16T16:34:45.549Z,2.97
2022-11-16T16:37:14.053Z,1.90
2022-11-16T16:39:42.304Z,1.17
2022-11-16T16:42:13.212Z,4.00
2022-11-16T16:44:43.375Z,2.23
2022-11-16T16:47:11.903Z,4.63
2022-11-16T16:49:40.298Z,3.17
2022-11-16T16:52:09.691Z,1.80
2022-11-16T16:54:37.927Z,2.93
2022-11-16T16:57:06.257Z,1.77
2022-11-16T16:59:34.536Z,2.30
2022-11-16T17:02:04.331Z,3.10
2022-11-16T17:04:34.148Z,4.10
2022-11-16T17:07:02.399Z,3.37
2022-11-16T17:09:30.951Z,2.63
2022-11-16T17:11:59.239Z,2.13
2022-11-16T17:14:27.639Z,3.43
2022-11-16T17:16:55.872Z,5.73
2022-11-16T17:19:25.579Z,3.57
2022-11-16T17:21:54.202Z,1.40
2022-11-16T17:24:22.735Z,3.30
2022-11-16T17:26:51.019Z,3.70
2022-11-16T17:29:19.384Z,4.17
2022-11-16T17:31:48.420Z,3.83
2022-11-16T17:34:16.652Z,5.00
2022-11-16T17:36:46.314Z,3.60
2022-11-16T17:39:16.019Z,1.60
2022-11-16T17:41:44.399Z,3.80
2022-11-16T17:44:17.173Z,5.47
2022-11-16T17:46:48.532Z,1.73
2022-11-16T17:49:16.828Z,3.60
2022-11-16T17:51:48.748Z,2.27
2022-11-16T17:54:17.080Z,5.43
2022-11-16T17:56:45.332Z,3.07
2022-11-16T17:59:13.591Z,2.77
2022-11-16T18:01:41.977Z,4.37
2022-11-16T18:04:10.332Z,6.10
2022-11-16T18:06:39.548Z,4.47
2022-11-16T18:09:09.270Z,4.07
2022-11-16T18:11:40.004Z,3.23
2022-11-16T18:14:11.557Z,5.23
2022-11-16T18:16:41.173Z,2.33
2022-11-16T18:19:10.007Z,1.83
2022-11-16T18:21:41.100Z,6.40
2022-11-16T18:24:11.449Z,4.33
2022-11-16T18:26:40.459Z,3.90
2022-11-16T18:29:12.543Z,3.33
2022-11-16T18:31:41.356Z,2.90
2022-11-16T18:34:20.528Z,3.60
2022-11-16T18:36:51.252Z,1.60
2022-11-16T18:39:24.268Z,3.03
2022-11-16T18:41:56.427Z,2.60
2022-11-16T18:44:25.256Z,1.90
2022-11-16T18:46:53.645Z,0.93
2022-11-16T18:49:25.773Z,1.70
2022-11-16T18:51:54.010Z,1.90
2022-11-16T18:54:27.044Z,1.23
2022-11-16T18:56:56.982Z,1.30
2022-11-16T18:59:27.511Z,0.63
2022-11-16T19:01:56.441Z,1.27
2022-11-16T19:04:27.287Z,1.80
2022-11-16T19:06:56.163Z,2.77
2022-11-16T19:09:26.545Z,1.63
2022-11-16T19:11:55.046Z,1.23
2022-11-16T19:14:23.340Z,2.60
2022-11-16T19:16:56.867Z,1.80
2022-11-16T19:19:27.839Z,2.70
2022-11-16T19:21:58.752Z,1.47
2022-11-16T19:24:29.003Z,1.77
2022-11-16T19:26:57.658Z,2.40
2022-11-16T19:29:26.174Z,2.30
2022-11-16T19:31:54.518Z,1.03
2022-11-16T19:34:22.765Z,1.60
2022-11-16T19:36:51.540Z,1.13
2022-11-16T19:39:19.912Z,4.87
2022-11-16T19:41:49.716Z,1.90
2022-11-16T19:44:18.242Z,1.17
2022-11-16T19:46:46.527Z,1.13
2022-11-16T19:49:20.221Z,1.73
2022-11-16T19:51:49.539Z,1.80
2022-11-16T19:54:17.833Z,1.90
2022-11-16T19:56:49.318Z,5.27
2022-11-16T19:59:21.695Z,4.80
2022-11-16T20:01:50.030Z,3.27
2022-11-16T20:04:18.267Z,4.40
2022-11-16T20:06:46.555Z,5.10
2022-11-16T20:09:14.804Z,8.20
2022-11-16T20:11:43.385Z,5.10
2022-11-16T20:14:13.981Z,2.53
2022-11-16T20:16:50.452Z,2.73
2022-11-16T20:19:20.609Z,5.20
2022-11-16T20:21:48.912Z,2.60
2022-11-16T20:24:19.075Z,2.70
2022-11-16T20:26:49.091Z,0.93
2022-11-16T20:29:19.244Z,1.80
2022-11-16T20:31:49.035Z,1.93
2022-11-16T20:34:20.432Z,3.07
2022-11-16T20:36:50.936Z,2.80
2022-11-16T20:39:20.841Z,3.83
2022-11-16T20:41:49.764Z,6.03
2022-11-16T20:44:22.181Z,6.90
2022-11-16T20:46:52.928Z,5.33
2022-11-16T20:49:21.439Z,2.30
2022-11-16T20:51:51.179Z,2.20
2022-11-16T20:54:19.440Z,1.73
2022-11-16T20:56:48.312Z,2.40
2022-11-16T20:59:16.565Z,2.40
2022-11-16T21:01:47.875Z,1.27
2022-11-16T21:04:17.771Z,1.47
2022-11-16T21:06:45.935Z,2.43
2022-11-16T21:09:16.018Z,2.67
2022-11-16T21:12:01.738Z,2.80
2022-11-16T21:14:30.077Z,3.00
2022-11-16T21:16:58.304Z,1.90
2022-11-16T21:19:27.912Z,1.37
2022-11-16T21:21:56.061Z,1.57
2022-11-16T21:24:24.938Z,1.33
2022-11-16T21:26:53.480Z,0.97
2022-11-16T21:29:26.030Z,2.13
2022-11-16T21:31:54.341Z,1.33
2022-11-16T21:34:24.501Z,1.80
2022-11-16T21:36:54.108Z,0.93
2022-11-16T21:39:22.480Z,1.13
2022-11-16T21:41:50.689Z,1.00
2022-11-16T21:44:18.854Z,1.97
2022-11-16T21:46:47.081Z,1.80
2022-11-16T21:49:15.368Z,1.10
2022-11-16T21:51:43.621Z,1.90
2022-11-16T21:54:13.952Z,1.93
2022-11-16T21:56:42.237Z,1.93
2022-11-16T21:59:10.478Z,2.00
2022-11-16T22:01:52.482Z,1.07
2022-11-16T22:04:38.011Z,1.50
2022-11-16T22:07:23.613Z,1.70
2022-11-16T22:09:53.213Z,0.83
2022-11-16T22:12:21.442Z,1.10
2022-11-16T22:14:49.708Z,0.87
2022-11-16T22:17:17.936Z,1.67
2022-11-16T22:19:46.140Z,0.93
2022-11-16T22:22:14.687Z,0.90
2022-11-16T22:24:43.022Z,0.67
2022-11-16T22:27:12.755Z,0.80
2022-11-16T22:29:41.010Z,1.17
2022-11-16T22:32:09.333Z,1.13
2022-11-16T22:34:37.894Z,1.10
2022-11-16T22:37:06.190Z,2.13
2022-11-16T22:39:34.805Z,0.60
2022-11-16T22:42:02.994Z,0.47
2022-11-16T22:44:32.709Z,0.40
2022-11-16T22:47:00.885Z,1.77
2022-11-16T22:49:29.084Z,0.73
2022-11-16T22:51:57.391Z,1.00
2022-11-16T22:54:28.598Z,0.77
2022-11-16T22:56:57.215Z,1.47
2022-11-16T22:59:45.548Z,0.77
2022-11-16T23:02:13.825Z,0.70
2022-11-16T23:04:42.091Z,1.50
2022-11-16T23:07:10.334Z,0.80
2022-11-16T23:09:38.643Z,0.97
2022-11-16T23:12:24.509Z,1.07
2022-11-16T23:15:11.508Z,0.60
2022-11-16T23:17:39.765Z,1.80
2022-11-16T23:20:26.916Z,0.50
2022-11-16T23:23:12.364Z,1.03
2022-11-16T23:25:58.275Z,0.90
2022-11-16T23:28:26.963Z,0.50
2022-11-16T23:30:56.564Z,1.43
2022-11-16T23:33:43.997Z,1.37
2022-11-16T23:36:12.438Z,1.13
2022-11-16T23:38:40.910Z,2.10
2022-11-16T23:41:26.815Z,1.40
2022-11-16T23:44:00.832Z,1.40
2022-11-16T23:46:32.539Z,0.90
2022-11-16T23:49:01.626Z,0.87
2022-11-16T23:51:29.852Z,1.00
2022-11-16T23:53:58.255Z,0.40
2022-11-16T23:56:26.494Z,0.93
2022-11-16T23:58:57.164Z,1.20
